Long Beach /Daugherty Field/ Airport
KLGB : now visible

Airfield :











YOU CAN JOIN US ON...

 
LOGIN :

Register | Disclaimer

   EN    FR    IT 

 









Legend :    VFR   Marginal VFR   IFR   Intensive IFR   Very Intensive IFR
Visi :
Ceiling :
>= 8 km
>= 3000ft
5 to 8 km
1000 to 3000 ft
1500m to 5 km
500 to 1000 ft
800 to 1500m
200 to 500 ft
< 800m
< 200 ft
Symbols :   Thunderstorms  Fog  Heavy snow  Heavy precipitations  Wind > 20 kt







- Airport Elevation : 60 ft
- IATA code : LGB


KLGB - Long Beach /Daugherty Field/

CURRENT METAR :
  • 211013Z AUTO 17004KT 10SM SCT020 BKN027 OVC035 16/11 A2995 RMK AO2 T01560106

EXPIRED METARs :
  • 210953Z AUTO 21005KT 10SM SCT020 SCT025 BKN033 16/11 A2996 RMK AO2 SLP144 T01560106
  • 210853Z AUTO 24004KT 10SM BKN020 BKN027 15/11 A2997 RMK AO2 SLP147 T01500106 58004
  • 210845Z AUTO 22004KT 10SM BKN020 15/11 A2997 RMK AO2 T01500111
  • 210753Z AUTO 18003KT 10SM CLR 15/11 A2997 RMK AO2 SLP148 T01500111 402170139

TAF KLGB
Valid from the 21 at 10:00 until the 22 at 06:00 UTC


211001Z 2110/2206 VRB03KT P6SM SCT025 BKN035
FM211600 20014G22KT P6SM SCT017 BKN035
FM212000 25017G25KT P6SM SCT035 SCT070
FM220400 29015G25KT P6SM FEW070
KZLA FIR / North America



MET'MAP, your aeronautical weather chart ! - Copyright ORBIFLY December 2007 - Disclaimer

ORBIFLY MET'MAP TEAM :

Programming & Development : Alexandra Zaïnal
Concept & Development : Baudouin d'Aumeries
Co-Development & Prog : Marc-Olivier Méhu
Technical & hardware support : Manuel Goepfert

Contact : metmap@orbifly.com




SOURCES & CREDITS :

   NOAA       Earth
Advisory